Time;durP1;ratioP1;P1;durP2;ratioP2;P2;SDS_P1;SDS_P2;PMS_P1;PMS_P2;Temp;Humidity;BMP_temperature;BMP_pressure;BME280_temperature;BME280_humidity;BME280_pressure;Samples;Min_cycle;Max_cycle;Signal;HPM_P1;HPM_P2
2022/09/27 00:02:26;;;;;;;1.57;0.20;;;10.70;99.90;;;;;;5039193;28;20849;-72
2022/09/27 00:04:54;;;;;;;0.40;0.20;;;10.70;99.90;;;;;;5036840;28;20467;-70
2022/09/27 00:07:21;;;;;;;0.40;0.20;;;10.70;99.90;;;;;;5038775;28;20484;-70
2022/09/27 00:09:48;;;;;;;0.40;0.30;;;10.60;99.90;;;;;;5034906;28;20514;-70
2022/09/27 00:12:16;;;;;;;2.63;0.20;;;10.70;99.90;;;;;;5037304;28;20453;-69
2022/09/27 00:14:43;;;;;;;0.40;0.20;;;10.70;99.90;;;;;;5035465;28;20510;-70
2022/09/27 00:17:10;;;;;;;0.73;0.13;;;10.60;99.90;;;;;;5037414;28;20452;-69
2022/09/27 00:19:37;;;;;;;0.33;0.20;;;10.70;99.90;;;;;;5034400;28;20460;-69
2022/09/27 00:22:05;;;;;;;0.40;0.20;;;10.70;99.90;;;;;;5037815;28;20484;-70
2022/09/27 00:24:32;;;;;;;0.40;0.10;;;10.70;99.90;;;;;;5036260;28;20467;-71
2022/09/27 00:26:59;;;;;;;0.30;0.17;;;10.70;99.90;;;;;;5038727;28;20448;-70
2022/09/27 00:29:27;;;;;;;0.30;0.13;;;10.70;99.90;;;;;;5035391;28;20962;-70
2022/09/27 00:31:54;;;;;;;0.40;0.20;;;10.80;99.90;;;;;;5038053;28;20444;-70
2022/09/27 00:34:24;;;;;;;0.57;0.20;;;10.80;99.90;;;;;;5035501;28;20448;-71
2022/09/27 00:36:52;;;;;;;0.23;0.10;;;10.90;99.90;;;;;;5038562;28;20457;-70
2022/09/27 00:39:19;;;;;;;0.30;0.20;;;10.80;99.90;;;;;;5035638;28;20437;-70
2022/09/27 00:41:47;;;;;;;0.30;0.10;;;11.10;99.90;;;;;;5038550;28;20510;-70
2022/09/27 00:44:51;;;;;;;0.30;0.17;;;11.10;99.90;;;;;;5035477;28;20460;-70
2022/09/27 00:47:25;;;;;;;0.30;0.10;;;11.20;99.90;;;;;;5037307;28;20517;-70
2022/09/27 00:49:56;;;;;;;0.67;0.20;;;10.90;99.90;;;;;;5036611;28;20451;-70
2022/09/27 00:52:27;;;;;;;0.30;0.13;;;11.00;99.90;;;;;;5036909;28;20526;-71
2022/09/27 00:54:58;;;;;;;0.20;0.10;;;10.90;99.90;;;;;;5035141;28;20460;-71
2022/09/27 00:57:25;;;;;;;0.30;0.10;;;10.90;99.90;;;;;;5037256;28;20484;-70
2022/09/27 00:59:56;;;;;;;0.30;0.10;;;10.80;99.90;;;;;;5035064;28;20479;-70
2022/09/27 01:02:24;;;;;;;0.30;0.10;;;10.90;99.90;;;;;;5037979;28;20487;-71
2022/09/27 01:04:52;;;;;;;0.40;0.10;;;10.90;99.90;;;;;;5036027;28;20459;-70
2022/09/27 01:07:19;;;;;;;0.40;0.10;;;11.00;99.90;;;;;;5037785;28;20482;-70
2022/09/27 01:09:46;;;;;;;0.30;0.10;;;10.80;99.90;;;;;;5035716;28;20518;-70
2022/09/27 01:12:23;;;;;;;0.40;0.20;;;10.90;99.90;;;;;;5037888;28;20444;-70
2022/09/27 01:15:05;;;;;;;0.40;0.10;;;10.90;99.90;;;;;;5035611;28;20486;-70
2022/09/27 01:17:46;;;;;;;0.37;0.20;;;10.90;99.90;;;;;;5037768;28;20471;-70
2022/09/27 01:20:41;;;;;;;0.30;0.10;;;10.90;99.90;;;;;;5035697;28;20514;-70
2022/09/27 01:23:39;;;;;;;0.30;0.10;;;11.00;99.90;;;;;;5037665;28;20519;-70
2022/09/27 01:26:15;;;;;;;0.40;0.10;;;11.20;99.90;;;;;;5035223;28;20736;-71
2022/09/27 01:28:55;;;;;;;0.40;0.20;;;11.20;99.90;;;;;;5037538;28;20864;-70
2022/09/27 01:31:28;;;;;;;0.40;0.20;;;11.10;99.90;;;;;;5035511;28;20526;-71
2022/09/27 01:34:03;;;;;;;0.30;0.10;;;11.10;99.90;;;;;;5037147;28;20444;-70
2022/09/27 01:36:40;;;;;;;0.40;0.20;;;11.00;99.90;;;;;;5035919;28;20555;-70
2022/09/27 01:39:21;;;;;;;0.33;0.10;;;10.90;99.90;;;;;;5037471;28;20733;-70
2022/09/27 01:42:00;;;;;;;0.40;0.20;;;11.10;99.90;;;;;;5037118;28;20525;-71
2022/09/27 01:44:32;;;;;;;0.30;0.13;;;11.00;99.90;;;;;;5035633;28;20441;-71
2022/09/27 01:47:05;;;;;;;0.40;0.17;;;11.10;99.90;;;;;;5037348;28;20448;-70
2022/09/27 01:49:38;;;;;;;0.30;0.20;;;11.20;99.90;;;;;;5036000;28;20525;-70
2022/09/27 01:52:08;;;;;;;0.40;0.20;;;11.20;99.90;;;;;;5037233;28;20448;-71
2022/09/27 01:54:40;;;;;;;0.30;0.10;;;11.20;99.90;;;;;;5035979;28;20456;-70
2022/09/27 01:57:11;;;;;;;0.30;0.10;;;11.10;99.90;;;;;;5037027;28;20452;-70
2022/09/27 01:59:45;;;;;;;0.30;0.10;;;11.20;99.90;;;;;;5035297;28;20456;-71
2022/09/27 02:02:16;;;;;;;0.30;0.10;;;11.20;99.90;;;;;;5037235;28;20530;-70
2022/09/27 02:04:48;;;;;;;0.30;0.10;;;11.30;99.90;;;;;;5034214;28;20464;-70
2022/09/27 02:07:20;;;;;;;0.30;0.10;;;11.30;99.90;;;;;;5036915;28;20444;-70
2022/09/27 02:09:53;;;;;;;0.40;0.20;;;11.20;99.90;;;;;;5034891;28;20456;-70
2022/09/27 02:12:23;;;;;;;0.30;0.10;;;11.20;99.90;;;;;;5036991;28;20748;-70
2022/09/27 02:14:55;;;;;;;0.40;0.20;;;11.30;99.90;;;;;;5033702;28;20456;-70
2022/09/27 02:17:31;;;;;;;0.30;0.10;;;11.40;99.90;;;;;;5036490;28;20452;-70
2022/09/27 02:20:08;;;;;;;0.40;0.20;;;11.40;99.90;;;;;;5034661;28;20459;-70
2022/09/27 02:22:38;;;;;;;0.40;0.20;;;11.40;99.90;;;;;;5035922;28;20541;-69
2022/09/27 02:25:13;;;;;;;0.30;0.10;;;11.40;99.90;;;;;;5035498;28;20456;-69
2022/09/27 02:27:47;;;;;;;0.50;0.20;;;11.40;99.90;;;;;;5036235;28;20452;-69
2022/09/27 02:30:16;;;;;;;0.30;0.10;;;11.40;99.90;;;;;;5034276;28;20483;-69
2022/09/27 02:32:45;;;;;;;0.30;0.10;;;11.50;99.90;;;;;;5036227;28;20441;-69
2022/09/27 02:35:16;;;;;;;0.30;0.10;;;11.40;99.90;;;;;;5034660;28;20460;-69
2022/09/27 02:37:43;;;;;;;0.80;0.30;;;11.50;99.90;;;;;;5036834;28;20471;-70
2022/09/27 02:40:11;;;;;;;0.30;0.10;;;11.30;99.90;;;;;;5032577;28;20515;-69
2022/09/27 02:42:39;;;;;;;0.30;0.10;;;11.40;99.90;;;;;;5036243;28;20541;-72
2022/09/27 02:45:07;;;;;;;0.30;0.10;;;11.40;99.90;;;;;;5034739;28;20456;-69
2022/09/27 02:47:55;;;;;;;0.30;0.10;;;11.20;99.90;;;;;;5036107;28;20895;-69
2022/09/27 02:50:46;;;;;;;0.30;0.10;;;11.30;99.90;;;;;;5034836;28;21102;-70
2022/09/27 02:53:22;;;;;;;0.20;0.10;;;11.20;99.90;;;;;;5036134;28;20533;-70
2022/09/27 02:55:55;;;;;;;0.30;0.10;;;11.20;99.90;;;;;;5034482;28;20518;-70
2022/09/27 02:58:34;;;;;;;0.33;0.10;;;11.00;99.90;;;;;;5036215;28;20452;-69
2022/09/27 03:01:06;;;;;;;0.30;0.10;;;11.00;99.90;;;;;;5033880;28;20529;-69
2022/09/27 03:03:42;;;;;;;0.30;0.10;;;11.00;99.90;;;;;;5036022;28;20488;-69
2022/09/27 03:06:13;;;;;;;0.30;0.10;;;11.00;99.90;;;;;;5033528;28;20460;-70
2022/09/27 03:08:40;;;;;;;0.30;0.10;;;11.00;99.90;;;;;;5036181;28;20871;-69
2022/09/27 03:11:08;;;;;;;3.00;0.10;;;10.90;99.90;;;;;;5034905;28;20459;-69
2022/09/27 03:13:37;;;;;;;0.30;0.10;;;10.90;99.90;;;;;;5035876;28;20452;-70
2022/09/27 03:16:05;;;;;;;0.30;0.10;;;10.80;99.90;;;;;;5034311;28;20466;-69
2022/09/27 03:18:32;;;;;;;0.20;0.10;;;10.70;99.90;;;;;;5035725;28;20448;-70
2022/09/27 03:21:00;;;;;;;0.40;0.10;;;10.60;99.90;;;;;;5033480;28;20518;-71
2022/09/27 03:23:27;;;;;;;1.50;0.17;;;10.80;99.90;;;;;;5036044;28;20488;-70
2022/09/27 03:25:54;;;;;;;0.40;0.20;;;10.80;99.90;;;;;;5034627;28;20456;-70
2022/09/27 03:28:21;;;;;;;0.30;0.10;;;10.90;99.90;;;;;;5034537;28;20673;-69
2022/09/27 03:30:48;;;;;;;0.50;0.10;;;10.70;99.90;;;;;;5032436;28;20488;-69
2022/09/27 03:33:15;;;;;;;2.37;0.10;;;10.70;99.90;;;;;;5032917;28;20440;-70
2022/09/27 03:35:43;;;;;;;0.30;0.10;;;10.60;99.90;;;;;;5031856;28;20463;-70
2022/09/27 03:38:11;;;;;;;0.30;0.10;;;10.60;99.90;;;;;;5032588;28;20448;-70
2022/09/27 03:40:38;;;;;;;0.30;0.20;;;10.50;99.90;;;;;;5032131;28;20510;-70
2022/09/27 03:43:05;;;;;;;0.50;0.20;;;10.50;99.90;;;;;;5038184;28;20490;-70
2022/09/27 03:45:32;;;;;;;0.40;0.10;;;10.50;99.90;;;;;;5038931;28;20518;-69
2022/09/27 03:48:00;;;;;;;4.20;0.20;;;10.70;99.90;;;;;;5039581;28;20526;-69
2022/09/27 03:50:27;;;;;;;0.43;0.20;;;10.50;99.90;;;;;;5036880;28;20452;-70
2022/09/27 03:52:54;;;;;;;0.60;0.20;;;10.50;99.90;;;;;;5039079;28;20763;-70
2022/09/27 03:55:22;;;;;;;0.47;0.20;;;10.60;99.90;;;;;;5037256;28;20458;-70
2022/09/27 03:57:49;;;;;;;0.40;0.20;;;10.50;99.90;;;;;;5038995;28;20460;-70
2022/09/27 04:00:17;;;;;;;0.77;0.30;;;10.40;99.90;;;;;;5035968;28;20464;-70
2022/09/27 04:02:44;;;;;;;0.50;0.20;;;10.40;99.90;;;;;;5038568;28;20452;-69
2022/09/27 04:05:11;;;;;;;1.23;0.20;;;10.30;99.90;;;;;;5036441;28;20525;-69
2022/09/27 04:07:38;;;;;;;0.30;0.20;;;10.20;99.90;;;;;;5037832;28;20452;-69
2022/09/27 04:10:06;;;;;;;0.50;0.20;;;10.40;99.90;;;;;;5036003;28;20461;-70
2022/09/27 04:12:34;;;;;;;0.40;0.20;;;10.50;99.90;;;;;;5038553;28;20216;-72
2022/09/27 04:15:01;;;;;;;1.27;0.30;;;10.50;99.90;;;;;;5035400;28;20457;-69
2022/09/27 04:17:28;;;;;;;0.45;0.20;;;10.40;99.90;;;;;;5038220;28;20490;-69
2022/09/27 04:19:55;;;;;;;0.60;0.27;;;10.40;99.90;;;;;;5035667;28;20209;-69
2022/09/27 04:22:22;;;;;;;0.30;0.17;;;10.50;99.90;;;;;;5037746;28;20448;-69
2022/09/27 04:24:49;;;;;;;0.40;0.20;;;10.50;99.90;;;;;;5037304;28;20488;-70
2022/09/27 04:27:17;;;;;;;0.40;0.20;;;10.50;99.90;;;;;;5037871;28;20879;-70
2022/09/27 04:29:45;;;;;;;1.80;0.30;;;10.50;99.90;;;;;;5032828;28;20476;-70
2022/09/27 04:32:12;;;;;;;5.13;0.23;;;10.50;99.90;;;;;;5034657;28;20456;-70
2022/09/27 04:37:24;;;;;;;0.40;0.30;;;10.40;99.90;;;;;;5034368;28;20429;-69
2022/09/27 04:39:51;;;;;;;3.23;0.30;;;10.30;99.90;;;;;;5032034;28;20463;-70
2022/09/27 04:42:21;;;;;;;0.63;0.20;;;10.30;99.90;;;;;;5034807;28;20452;-70
2022/09/27 04:44:49;;;;;;;0.50;0.30;;;10.30;99.90;;;;;;5035142;28;20495;-70
2022/09/27 04:47:17;;;;;;;0.53;0.30;;;10.30;99.90;;;;;;5036775;28;20506;-69
2022/09/27 04:49:44;;;;;;;1.10;0.30;;;10.30;99.90;;;;;;5033619;28;20460;-70
2022/09/27 04:52:11;;;;;;;0.60;0.30;;;10.20;99.90;;;;;;5037013;28;20876;-69
2022/09/27 04:54:39;;;;;;;2.63;0.30;;;10.30;99.90;;;;;;5034969;28;20506;-68
2022/09/27 04:57:06;;;;;;;0.53;0.30;;;10.30;99.90;;;;;;5037422;28;20455;-69
2022/09/27 04:59:33;;;;;;;1.73;0.30;;;10.30;99.90;;;;;;5035101;28;20514;-70
2022/09/27 05:02:03;;;;;;;0.83;0.37;;;10.30;99.90;;;;;;5037966;28;20449;-69
2022/09/27 05:04:30;;;;;;;0.57;0.30;;;10.50;99.90;;;;;;5037772;28;20488;-70
2022/09/27 05:06:57;;;;;;;2.50;0.30;;;10.60;99.90;;;;;;5036384;28;20452;-70
2022/09/27 05:09:24;;;;;;;1.60;0.30;;;10.60;99.90;;;;;;5034638;28;20791;-71
2022/09/27 05:11:51;;;;;;;0.40;0.23;;;10.50;99.90;;;;;;5036568;28;20506;-71
2022/09/27 05:14:19;;;;;;;0.50;0.20;;;10.80;99.90;;;;;;5030527;28;20514;-71
2022/09/27 05:16:46;;;;;;;0.50;0.30;;;10.70;99.90;;;;;;5035424;28;20930;-70
2022/09/27 05:19:14;;;;;;;0.70;0.30;;;10.60;99.90;;;;;;5033886;28;20457;-70
2022/09/27 05:21:42;;;;;;;0.40;0.20;;;10.60;99.90;;;;;;5037137;28;20445;-70
2022/09/27 05:24:09;;;;;;;0.60;0.30;;;10.50;99.90;;;;;;5035034;28;20484;-71
2022/09/27 05:26:36;;;;;;;1.27;0.30;;;10.50;99.90;;;;;;5037243;28;20529;-71
2022/09/27 05:29:04;;;;;;;0.50;0.30;;;10.50;99.90;;;;;;5036272;28;20940;-71
2022/09/27 05:31:30;;;;;;;0.50;0.30;;;10.40;99.90;;;;;;5034130;28;20684;-69
2022/09/27 05:33:57;;;;;;;0.60;0.30;;;10.30;99.90;;;;;;5036121;28;20499;-70
2022/09/27 05:36:26;;;;;;;0.40;0.20;;;10.30;99.90;;;;;;5032970;28;20452;-70
2022/09/27 05:38:53;;;;;;;0.40;0.20;;;10.40;99.90;;;;;;5032963;28;20456;-70
2022/09/27 05:41:20;;;;;;;0.37;0.20;;;10.50;99.90;;;;;;5031275;28;20534;-70
2022/09/27 05:43:47;;;;;;;0.60;0.30;;;10.50;99.90;;;;;;5034139;28;20480;-71
2022/09/27 05:46:14;;;;;;;0.80;0.30;;;10.60;99.90;;;;;;5034866;28;20518;-71
2022/09/27 05:48:41;;;;;;;0.40;0.20;;;10.80;99.90;;;;;;5033777;28;20498;-71
2022/09/27 05:51:08;;;;;;;2.87;0.30;;;10.70;99.90;;;;;;5031596;28;20667;-72
2022/09/27 05:53:36;;;;;;;0.60;0.30;;;10.80;99.90;;;;;;5033903;28;20498;-72
2022/09/27 05:56:04;;;;;;;0.40;0.20;;;10.90;99.90;;;;;;5032003;28;20460;-71
2022/09/27 05:58:31;;;;;;;0.73;0.20;;;11.10;99.90;;;;;;5035458;28;20452;-72
2022/09/27 06:01:01;;;;;;;0.83;0.30;;;11.20;99.90;;;;;;5032589;28;20743;-72
2022/09/27 06:03:28;;;;;;;0.40;0.20;;;11.20;99.90;;;;;;5034697;28;20533;-71
2022/09/27 06:05:55;;;;;;;0.40;0.20;;;11.30;99.90;;;;;;5032175;28;20826;-72
2022/09/27 06:08:22;;;;;;;0.40;0.20;;;11.20;99.90;;;;;;5034251;28;20452;-71
2022/09/27 06:11:00;;;;;;;0.43;0.20;;;11.00;99.90;;;;;;5034251;28;20494;-71
2022/09/27 06:13:27;;;;;;;0.47;0.20;;;10.80;99.90;;;;;;5031679;28;20486;-71
2022/09/27 06:15:54;;;;;;;0.40;0.30;;;10.80;99.90;;;;;;5031849;28;20538;-71
2022/09/27 06:18:22;;;;;;;0.50;0.20;;;10.90;99.90;;;;;;5033071;28;20510;-71
2022/09/27 06:20:49;;;;;;;0.47;0.20;;;11.00;99.90;;;;;;5034687;28;20453;-72
2022/09/27 06:23:17;;;;;;;0.40;0.20;;;11.00;99.90;;;;;;5033538;28;20468;-71
2022/09/27 06:25:45;;;;;;;1.87;0.20;;;11.10;99.90;;;;;;5034671;28;20498;-72
2022/09/27 06:28:14;;;;;;;0.70;0.20;;;11.10;99.90;;;;;;5032328;28;20463;-71
2022/09/27 06:30:43;;;;;;;0.37;0.17;;;11.30;99.90;;;;;;5030137;28;20982;-72
2022/09/27 06:33:15;;;;;;;0.40;0.20;;;11.30;99.90;;;;;;5029493;28;20523;-71
2022/09/27 06:35:44;;;;;;;0.30;0.20;;;11.30;99.90;;;;;;5030901;28;20448;-71
2022/09/27 06:38:13;;;;;;;0.60;0.20;;;11.30;99.90;;;;;;5031190;28;20460;-72
2022/09/27 06:40:40;;;;;;;0.60;0.20;;;11.60;99.90;;;;;;5033368;28;20510;-72
2022/09/27 06:43:09;;;;;;;1.20;0.17;;;12.10;91.20;;;;;;5030077;28;20465;-72
2022/09/27 06:45:38;;;;;;;0.70;0.20;;;11.90;86.70;;;;;;5034151;28;20985;-72
2022/09/27 06:48:07;;;;;;;0.60;0.20;;;11.80;99.10;;;;;;5034146;28;20464;-72
2022/09/27 06:50:36;;;;;;;0.40;0.20;;;11.70;99.90;;;;;;5033766;28;20452;-72
2022/09/27 06:53:05;;;;;;;0.30;0.10;;;11.80;96.10;;;;;;5029821;28;20858;-72
2022/09/27 06:55:33;;;;;;;0.30;0.13;;;12.00;90.20;;;;;;5033754;28;20980;-72
2022/09/27 07:00:49;;;;;;;0.30;0.20;;;12.20;65.00;;;;;;5032383;28;20887;-72
2022/09/27 07:03:16;;;;;;;2.70;0.20;;;12.00;53.00;;;;;;5032275;28;20463;-73
2022/09/27 07:05:54;;;;;;;0.40;0.13;;;12.00;78.90;;;;;;5033498;28;20947;-71
2022/09/27 07:08:21;;;;;;;0.60;0.20;;;12.00;58.90;;;;;;5032679;28;20502;-71
2022/09/27 07:10:48;;;;;;;0.30;0.10;;;11.60;63.60;;;;;;5033555;28;20482;-72
2022/09/27 07:13:16;;;;;;;0.30;0.10;;;11.40;85.60;;;;;;5033204;28;20464;-72
2022/09/27 07:15:43;;;;;;;0.30;0.20;;;11.30;99.90;;;;;;5034672;28;20452;-72
2022/09/27 07:18:11;;;;;;;0.40;0.10;;;11.40;99.90;;;;;;5033549;28;20460;-72
2022/09/27 07:20:38;;;;;;;0.30;0.10;;;11.60;99.90;;;;;;5035207;28;20531;-72
2022/09/27 07:23:06;;;;;;;0.80;0.13;;;11.70;99.10;;;;;;5031965;28;20908;-72
2022/09/27 07:25:36;;;;;;;0.87;0.10;;;11.80;74.30;;;;;;5036383;28;20472;-72
2022/09/27 07:28:13;;;;;;;0.30;0.10;;;11.50;90.90;;;;;;5035064;28;20514;-72
2022/09/27 07:30:41;;;;;;;0.30;0.10;;;11.60;99.90;;;;;;5035200;28;20752;-72
2022/09/27 07:33:08;;;;;;;0.20;0.10;;;11.80;99.90;;;;;;5033317;28;20460;-72
2022/09/27 07:35:40;;;;;;;0.27;0.10;;;12.00;90.50;;;;;;5035599;28;20440;-71
2022/09/27 07:38:12;;;;;;;0.27;0.10;;;12.00;56.20;;;;;;5034741;28;20483;-71
2022/09/27 07:40:39;;;;;;;0.30;0.10;;;11.70;66.10;;;;;;5034906;28;20519;-72
2022/09/27 07:43:11;;;;;;;0.30;0.10;;;11.60;89.80;;;;;;5033047;28;20533;-72
2022/09/27 07:45:38;;;;;;;1.27;0.10;;;11.70;85.10;;;;;;5034312;28;20582;-72
2022/09/27 07:48:06;;;;;;;0.60;0.10;;;11.70;85.60;;;;;;5033911;28;20456;-72
2022/09/27 07:50:33;;;;;;;0.30;0.10;;;11.90;73.00;;;;;;5033927;28;20903;-72
2022/09/27 07:53:03;;;;;;;2.40;0.10;;;11.80;42.90;;;;;;5031474;28;20459;-71
2022/09/27 07:55:30;;;;;;;0.43;0.20;;;11.40;50.10;;;;;;5035318;28;20490;-71
2022/09/27 07:58:03;;;;;;;0.40;0.10;;;11.70;84.10;;;;;;5033743;28;20896;-70
2022/09/27 08:00:31;;;;;;;0.30;0.10;;;11.70;76.90;;;;;;5035882;28;20444;-71
2022/09/27 08:02:57;;;;;;;0.40;0.13;;;11.70;52.30;;;;;;5033958;28;20509;-71
2022/09/27 08:05:24;;;;;;;0.30;0.10;;;12.00;39.80;;;;;;5035720;28;20484;-70
2022/09/27 08:07:56;;;;;;;0.40;0.10;;;12.30;30.40;;;;;;5033622;28;20459;-71
2022/09/27 08:10:26;;;;;;;0.30;0.10;;;12.40;10.60;;;;;;5035247;28;20762;-69
2022/09/27 08:12:53;;;;;;;0.30;0.10;;;12.30;25.10;;;;;;5035564;28;20571;-69
2022/09/27 08:15:22;;;;;;;0.40;0.20;;;12.10;44.60;;;;;;5035539;28;20577;-70
2022/09/27 08:17:49;;;;;;;0.40;0.17;;;12.10;35.60;;;;;;5034029;28;20454;-70
2022/09/27 08:20:16;;;;;;;1.23;0.10;;;11.90;40.90;;;;;;5034923;28;20490;-70
2022/09/27 08:22:44;;;;;;;1.47;0.10;;;11.90;50.20;;;;;;5035667;28;20456;-71
2022/09/27 08:25:12;;;;;;;0.67;0.10;;;11.40;33.30;;;;;;5035918;28;20487;-71
2022/09/27 08:27:41;;;;;;;1.53;0.10;;;11.30;66.20;;;;;;5033732;28;20499;-71
2022/09/27 08:30:09;;;;;;;0.40;0.20;;;11.70;72.00;;;;;;5035440;28;20511;-71
2022/09/27 08:32:37;;;;;;;0.40;0.10;;;11.90;71.20;;;;;;5036542;28;20217;-71
2022/09/27 08:35:06;;;;;;;0.30;0.10;;;12.20;35.50;;;;;;5036615;28;20444;-72
2022/09/27 08:37:34;;;;;;;0.50;0.20;;;12.10;8.80;;;;;;5036183;28;20869;-72
2022/09/27 08:40:01;;;;;;;1.07;0.20;;;12.40;20.60;;;;;;5036558;28;20456;-71
2022/09/27 08:42:38;;;;;;;0.40;0.20;;;12.70;1.00;;;;;;5036400;28;21033;-72
2022/09/27 08:45:13;;;;;;;0.37;0.20;;;12.60;1.00;;;;;;5037409;28;20520;-72
2022/09/27 08:47:44;;;;;;;0.33;0.20;;;12.70;15.10;;;;;;5032923;28;20464;-72
2022/09/27 08:50:26;;;;;;;0.50;0.10;;;12.80;1.00;;;;;;5036912;28;20487;-72
2022/09/27 08:52:58;;;;;;;0.30;0.10;;;12.90;1.00;;;;;;5035585;28;20499;-72
2022/09/27 08:55:38;;;;;;;0.50;0.17;;;13.00;1.00;;;;;;5037514;28;20445;-72
2022/09/27 08:58:14;;;;;;;0.30;0.20;;;13.10;1.00;;;;;;5035871;28;20744;-72
2022/09/27 09:00:43;;;;;;;0.30;0.10;;;12.90;1.00;;;;;;5037651;28;20934;-72
2022/09/27 09:03:18;;;;;;;0.40;0.20;;;12.60;1.00;;;;;;5035969;28;20453;-71
2022/09/27 09:05:58;;;;;;;0.60;0.17;;;12.70;11.00;;;;;;5035702;28;20486;-71
2022/09/27 09:08:38;;;;;;;0.40;0.10;;;12.40;4.60;;;;;;5034658;28;20455;-72
2022/09/27 09:14:23;;;;;;;0.30;0.10;;;12.20;1.00;;;;;;5034585;28;20420;-72
2022/09/27 09:17:00;;;;;;;0.30;0.10;;;12.50;12.70;;;;;;5033775;28;20460;-72
2022/09/27 09:19:39;;;;;;;0.97;0.27;;;12.30;15.60;;;;;;5035986;28;20517;-71
2022/09/27 09:22:24;;;;;;;5.63;0.20;;;12.50;37.90;;;;;;5035156;28;20896;-72
2022/09/27 09:25:07;;;;;;;0.70;0.20;;;12.90;13.10;;;;;;5035253;28;20491;-72
2022/09/27 09:27:40;;;;;;;0.40;0.20;;;13.30;1.00;;;;;;5034813;28;20460;-72
2022/09/27 09:30:20;;;;;;;0.33;0.10;;;13.30;1.00;;;;;;5036228;28;20537;-72
2022/09/27 09:33:14;;;;;;;0.40;0.20;;;13.00;1.00;;;;;;5035406;28;20969;-72
2022/09/27 09:35:44;;;;;;;0.40;0.20;;;12.50;1.00;;;;;;5035697;28;20467;-73
2022/09/27 09:38:18;;;;;;;0.57;0.20;;;12.50;1.00;;;;;;5034636;28;20518;-73
2022/09/27 09:40:50;;;;;;;0.40;0.20;;;12.80;1.00;;;;;;5035345;28;20518;-73
2022/09/27 09:43:22;;;;;;;0.40;0.20;;;12.80;1.00;;;;;;5035012;28;20492;-73
2022/09/27 09:45:54;;;;;;;0.50;0.20;;;12.80;1.00;;;;;;5033285;28;20491;-73
2022/09/27 09:48:32;;;;;;;0.30;0.20;;;13.10;1.00;;;;;;5031768;28;20950;-73
2022/09/27 09:51:02;;;;;;;0.40;0.20;;;13.20;1.00;;;;;;5034281;28;20952;-73
2022/09/27 09:53:39;;;;;;;0.40;0.20;;;13.20;1.00;;;;;;5031820;28;20444;-73
2022/09/27 09:56:12;;;;;;;0.40;0.20;;;13.60;1.00;;;;;;5031834;28;20451;-72
2022/09/27 09:58:44;;;;;;;0.40;0.20;;;14.00;99.90;;;;;;5033282;28;20547;-74
2022/09/27 10:01:24;;;;;;;0.70;0.20;;;14.00;1.00;;;;;;5033749;28;20459;-73
2022/09/27 10:03:53;;;;;;;0.60;0.20;;;14.00;1.00;;;;;;5034368;28;20470;-74
2022/09/27 10:06:20;;;;;;;0.70;0.30;;;13.80;99.90;;;;;;5026371;28;20546;-73
2022/09/27 10:08:48;;;;;;;0.40;0.20;;;13.80;1.00;;;;;;5054846;28;20524;-73
2022/09/27 10:11:20;;;;;;;0.33;0.20;;;13.60;20.60;;;;;;5054913;28;20451;-73
2022/09/27 10:13:50;;;;;;;0.50;0.30;;;13.80;1.00;;;;;;5054333;28;20486;-73
2022/09/27 10:16:21;;;;;;;0.90;0.50;;;14.30;99.90;;;;;;5054420;28;20564;-74
2022/09/27 10:18:56;;;;;;;1.37;0.30;;;14.90;99.90;;;;;;5054090;28;20443;-74
2022/09/27 10:21:26;;;;;;;0.40;0.20;;;14.90;1.00;;;;;;5054064;28;20447;-72
2022/09/27 10:24:10;;;;;;;0.63;0.27;;;15.10;1.00;;;;;;5055005;28;21026;-71
2022/09/27 10:26:41;;;;;;;0.90;0.27;;;14.80;1.00;;;;;;5053672;28;20483;-72
2022/09/27 10:29:24;;;;;;;0.63;0.30;;;14.80;1.00;;;;;;5055810;28;20883;-71
2022/09/27 10:31:52;;;;;;;0.40;0.20;;;14.20;1.00;;;;;;5052602;28;20462;-72
2022/09/27 10:34:28;;;;;;;0.60;0.30;;;13.90;1.00;;;;;;5050150;28;20509;-72
2022/09/27 10:37:16;;;;;;;0.40;0.20;;;13.80;1.00;;;;;;5039786;28;20527;-72
2022/09/27 10:39:43;;;;;;;0.57;0.20;;;13.60;99.90;;;;;;5041353;28;20543;-72
2022/09/27 10:42:21;;;;;;;0.40;0.20;;;13.70;1.00;;;;;;5054037;28;20505;-71
2022/09/27 10:44:49;;;;;;;2.10;0.30;;;13.90;99.90;;;;;;5045535;28;20488;-71
2022/09/27 10:47:21;;;;;;;0.40;0.30;;;14.30;99.90;;;;;;5046824;28;20447;-72
2022/09/27 10:49:51;;;;;;;0.30;0.20;;;14.60;1.00;;;;;;5052442;28;20493;-71
2022/09/27 10:52:24;;;;;;;0.70;0.30;;;14.50;1.00;;;;;;5053497;28;20451;-72
2022/09/27 10:54:56;;;;;;;0.63;0.37;;;14.70;1.00;;;;;;5051627;28;20883;-71
2022/09/27 10:57:25;;;;;;;0.63;0.23;;;14.70;99.90;;;;;;5054024;28;20448;-72
2022/09/27 10:59:58;;;;;;;1.43;0.30;;;14.90;1.00;;;;;;5051221;28;20509;-71
2022/09/27 11:02:33;;;;;;;0.40;0.20;;;14.90;1.00;;;;;;5053494;28;20775;-72
2022/09/27 11:05:10;;;;;;;0.50;0.20;;;14.80;99.90;;;;;;5050713;28;20489;-72
2022/09/27 11:07:47;;;;;;;0.40;0.27;;;15.00;1.00;;;;;;5052646;28;20479;-72
2022/09/27 11:10:26;;;;;;;0.80;0.27;;;14.70;1.00;;;;;;5050030;28;20458;-71
2022/09/27 11:13:07;;;;;;;0.63;0.20;;;14.50;1.00;;;;;;5050634;28;20451;-70
2022/09/27 11:15:43;;;;;;;0.67;0.30;;;14.40;32.80;;;;;;5042088;28;20465;-71
2022/09/27 11:20:46;;;;;;;0.30;0.20;;;14.40;99.90;;;;;;5040129;28;20471;-71
2022/09/27 11:23:32;;;;;;;0.40;0.20;;;14.30;99.90;;;;;;5051988;28;20296;-71
2022/09/27 11:26:13;;;;;;;0.70;0.30;;;14.50;1.00;;;;;;5047221;28;20794;-71
2022/09/27 11:28:52;;;;;;;0.70;0.20;;;14.80;99.90;;;;;;5052381;28;20693;-71
2022/09/27 11:31:28;;;;;;;0.47;0.27;;;14.90;1.00;;;;;;5048520;28;20461;-71
2022/09/27 11:34:11;;;;;;;0.40;0.20;;;14.70;99.90;;;;;;5042310;28;20495;-71
2022/09/27 11:36:56;;;;;;;0.60;0.20;;;14.50;99.90;;;;;;5030664;28;20900;-70
2022/09/27 11:39:28;;;;;;;0.60;0.30;;;14.50;99.90;;;;;;5029935;28;20448;-72
2022/09/27 11:42:11;;;;;;;0.70;0.30;;;14.60;99.90;;;;;;5029411;28;20460;-71
2022/09/27 11:44:53;;;;;;;0.30;0.20;;;14.60;1.00;;;;;;5032126;28;20559;-71
2022/09/27 11:47:40;;;;;;;0.40;0.20;;;14.30;99.90;;;;;;5029311;28;20861;-71
2022/09/27 11:50:44;;;;;;;0.30;0.17;;;14.30;1.00;;;;;;5032376;28;21094;-72
2022/09/27 11:53:27;;;;;;;0.45;0.20;;;14.10;99.90;;;;;;5032044;28;20445;-71
2022/09/27 11:56:05;;;;;;;0.40;0.10;;;14.40;1.00;;;;;;5031450;28;20434;-71
2022/09/27 11:58:42;;;;;;;0.67;0.30;;;14.30;1.00;;;;;;5031026;28;20661;-71
2022/09/27 12:01:18;;;;;;;0.40;0.20;;;14.40;99.90;;;;;;5031955;28;20448;-70
2022/09/27 12:04:02;;;;;;;1.47;0.10;;;14.30;99.90;;;;;;5035921;28;20930;-70
2022/09/27 12:06:38;;;;;;;0.30;0.10;;;13.90;1.00;;;;;;5031436;28;20590;-70
2022/09/27 12:09:10;;;;;;;0.40;0.10;;;14.00;99.90;;;;;;5035245;28;20523;-70
2022/09/27 12:11:41;;;;;;;0.30;0.10;;;13.90;99.90;;;;;;5035500;28;20461;-71
2022/09/27 12:14:16;;;;;;;0.33;0.10;;;13.80;1.00;;;;;;5036139;28;20453;-71
2022/09/27 12:16:44;;;;;;;0.30;0.10;;;13.50;99.90;;;;;;5034500;28;20448;-71
2022/09/27 12:19:18;;;;;;;0.30;0.10;;;13.10;1.00;;;;;;5036289;28;20639;-71
2022/09/27 12:21:45;;;;;;;0.30;0.10;;;12.90;1.00;;;;;;5047154;28;20461;-72
2022/09/27 12:24:20;;;;;;;0.40;0.10;;;12.30;1.00;;;;;;5051364;28;20542;-72
2022/09/27 12:26:50;;;;;;;0.30;0.10;;;11.90;9.80;;;;;;5048401;28;21033;-73
2022/09/27 12:29:23;;;;;;;0.30;0.10;;;11.40;50.60;;;;;;5047113;28;20467;-73
2022/09/27 12:31:59;;;;;;;0.40;0.10;;;11.20;92.10;;;;;;5038044;28;20452;-73
2022/09/27 12:34:33;;;;;;;0.40;0.20;;;11.40;96.60;;;;;;5046710;28;20474;-71
2022/09/27 12:37:05;;;;;;;0.30;0.10;;;11.70;93.20;;;;;;5040747;28;20510;-73
2022/09/27 12:39:50;;;;;;;0.30;0.10;;;11.90;42.30;;;;;;5054993;28;20966;-72
2022/09/27 12:42:20;;;;;;;0.57;0.20;;;12.10;16.90;;;;;;5053860;28;20512;-72
2022/09/27 12:44:49;;;;;;;0.30;0.10;;;12.20;16.50;;;;;;5036223;28;20948;-74
2022/09/27 12:47:33;;;;;;;0.30;0.20;;;12.10;21.60;;;;;;5035598;28;20480;-73
2022/09/27 12:50:08;;;;;;;0.30;0.10;;;12.20;31.50;;;;;;5037715;28;20444;-73
2022/09/27 12:52:41;;;;;;;0.50;0.13;;;12.30;21.30;;;;;;5042564;28;20451;-72
2022/09/27 12:55:30;;;;;;;0.20;0.10;;;12.30;17.90;;;;;;5042407;28;20547;-72
2022/09/27 12:58:27;;;;;;;0.30;0.10;;;12.50;18.60;;;;;;5042016;28;20525;-72
2022/09/27 13:00:59;;;;;;;0.30;0.10;;;12.90;7.90;;;;;;5037421;28;20458;-72
2022/09/27 13:03:53;;;;;;;0.40;0.20;;;13.00;10.10;;;;;;5037364;28;20453;-73
2022/09/27 13:06:39;;;;;;;0.30;0.10;;;12.90;9.80;;;;;;5043178;28;20301;-72
2022/09/27 13:09:31;;;;;;;0.30;0.10;;;12.60;45.80;;;;;;5047423;28;20827;-71
2022/09/27 13:12:03;;;;;;;0.30;0.10;;;12.80;38.40;;;;;;5032339;28;20479;-72
2022/09/27 13:14:35;;;;;;;0.30;0.10;;;13.10;21.30;;;;;;5040482;28;20572;-72
2022/09/27 13:17:04;;;;;;;0.30;0.10;;;13.20;1.00;;;;;;5053094;28;20451;-73
2022/09/27 13:19:41;;;;;;;0.33;0.10;;;13.40;1.00;;;;;;5047395;28;20484;-72
2022/09/27 13:22:10;;;;;;;0.30;0.10;;;12.80;13.50;;;;;;5041318;28;20467;-72
2022/09/27 13:24:49;;;;;;;0.30;0.10;;;12.90;35.10;;;;;;5048703;28;20456;-72